Terminal Aerodrome Forecast
Issued by NWS

Home | Current Version | Previous Version | Text Only | Print | Product List | Glossary On
Versions: 1 2 3 4 5 6 7 8 9 10 11 12 13 14 15 16
072
FTUS45 KFGZ 171937 AAA
TAFGCN
TAF AMD
KGCN 171937Z 1720/1818 23017G25KT P6SM BKN040 BKN200
      TEMPO 1720/1721 6SM -SHRA SCT030 OVC040
     FM180100 25010G16KT P6SM BKN040
     FM180600 07008KT P6SM SKC=

USA.gov is the U.S. government's official web portal to all federal, state and local government web resources and services.